Auburn, MI (48611)

8:04 PM EST on February 25, 2017 (GMT -0500)
MD9250 | | Change Station

Elev 616 ft 43.60 °N, 84.10 °W | Updated 12 minutes ago

Overcast
Overcast
26.0 °F
Feels Like 18 °F
N
7.0
Wind Variable Wind from South
Gusts 13.0 mph

Today
High -- | Low -- °F
--% Chance of Precip.
Yesterday
High -- | Low -- °F
Precip. -- in
Pressure 29.87 in
Visibility 10.0 miles
Clouds Overcast 4700 ft
Windchill 18 °F
Dew Point 20 °F
Humidity 79%
Rainfall 0.08 in
Snow Depth Not available.
7:18 AM 6:20 PM
Waning Crescent, 0% visible
METAR KMBS 260053Z 26018G24KT 10SM OVC047 M03/M08 A2984 RMK AO2 PK WND 27026/0035 SNE09 SLP114 P0000 T10331078
Pressure 29.87 in
Visibility 10.0 miles
Clouds Overcast 4700 ft
Windchill 18 °F
Dew Point 20 °F
Humidity 79%
Rainfall 0.08 in
Snow Depth Not available.
7:18 AM 6:20 PM
Waning Crescent, 0% visible
METAR KMBS 260053Z 26018G24KT 10SM OVC047 M03/M08 A2984 RMK AO2 PK WND 27026/0035 SNE09 SLP114 P0000 T10331078

Get Your Daily Forecast Email!

Thanks for signing up!

Be on the lookout for a verification email in your inbox.

You'll start receiving the daily forecast at 8 AM.

×

10-Day Weather Forecast

Almanac

Astronomy

Feb. 25, 2017 Rise Set
Actual Time
Civil Twilight
Nautical Twilight
Astronomical Twilight
Moon
Length of Visible Light
Length of Day
Tomorrow will be .
, % of the Moon is Illuminated

Today's Extremes

State Highs State Lows

Community

WunderPhotos

Upload Photos

1,962,540 photos uploaded!

WunderBlog® & News

Nearby

Air Quality

  Air Quality AQ Index Pollutant
Not available.

Snow Depth

Station Depth Elevation

Earthquake Activity

City Distance Mag. Time & Date
Minimum magnitude displayed is 2.5.

Coastal Water Temperatures

Place Temperature

Stations

Nearby Weather Stations

Station Location Temp. Windchill Dew Point Humidity Wind Precip. Elev Updated Type
                   

Watches & Warnings

There are currently no watches in effect.